Portada
METAR-TAF:

METAR-TAF

Aeroports :

Washington Municipal Airport

Washington, Iowa, Estats Units d'Amèrica

latitud: 41-17N, longitud: 091-40W, altitud: 230 m

Observació

L'informe es va fer fa 15 minuts, a les 22:55 UTC
Vent 8 kt del Sud/Sud-Est
Temperatura 26°C
Humitat 84%
Pressió 1009 hPa
Visibilitat: 16.1 km
Cel clar

METAR: KAWG 242255Z AUTO 15008KT 10SM CLR 26/23 A2981 RMK AO2

Hora: 18:10 (23:10 UTC)


TAF: manca

Observacions i pronòstics meteorològics de més de 4000 aeroports (METAR i TAF).

Les estacions disponibles són els punts grocs i vermells al mapa.

Posi el ratolí al punt desitjat per veure el nom de l'estació.

Feu clic per veure les observacions i els pronòstics meteorològics.

Per canviar el mapa: feu clic els botons verds amb una creu de color negre per apropar; al botó verd amb un guió per allunyar la imatge; o en les fletxes verdes per a mapes adjacents.


METAR-TAF: